»·PEaware :: QXE2565 KGTF-KSEA

QXE2565 :: KGTF-KSEA

FLIGHT INFORMATION

Flight Status: Arrived
Operator:
Horizon Air
More flights by this operator :: More flights under this callsign
Pilot: Adlai G. (28854)
Aircraft: DEHAVILLAND DASH 8 400
(DH8D)
More flights by this aircraft type
Origin: KGTF Great Falls Intl
United States
Destination: KSEA Seattle-Tacoma Intl
United States
More flights between these airports :: More routes between these airports
Route: +GTF J36 MLP GLASR1
File this flight plan on PilotEdge
Remarks:
Altitude:
(Current/Filed)
24,000ft
Speed:
(Current/Filed)
366kts
Departed: 16-May-20 08:01 AM
Arrived: 16-May-20 09:42 AM
Distance/Time
Traveled:
443nm/1:41
Distance/Time
To Go:
Arrived

Flight Plot

Page will automatically refresh every two minutes.

Flight plan parsing failed; only flown route is shown


Map Options




Map Legend


Flown Route
Filed Route
Departure Airport
Arrival Airport
Navaid (VOR, NDB)
Fix

Horizontal Profiles

Position Reports

Time Latitude Longitude Heading Altitude Ground
Speed
16-May-20 07:31 47.482575 -111.357270 180 3684ft 0kts
16-May-20 07:32 47.482575 -111.357270 180 3684ft 0kts
16-May-20 07:33 47.482575 -111.357270 180 3684ft 0kts
16-May-20 07:34 47.482575 -111.357270 180 3684ft 0kts
16-May-20 07:35 47.482575 -111.357270 180 3684ft 0kts
16-May-20 07:37 47.482575 -111.357270 180 3684ft 0kts
16-May-20 07:38 47.482575 -111.357270 180 3684ft 0kts
16-May-20 07:39 47.482575 -111.357270 180 3684ft 0kts
16-May-20 07:40 47.482575 -111.357270 180 3684ft 0kts
16-May-20 07:41 47.482575 -111.357270 180 3684ft 0kts
16-May-20 07:42 47.482575 -111.357270 180 3684ft 0kts
16-May-20 07:43 47.482575 -111.357270 180 3684ft 0kts
16-May-20 07:44 47.482575 -111.357270 180 3684ft 0kts
16-May-20 07:45 47.482575 -111.357270 180 3684ft 0kts
16-May-20 07:46 47.482575 -111.357270 180 3684ft 0kts
16-May-20 07:47 47.482575 -111.357270 180 3684ft 0kts
16-May-20 07:48 47.482575 -111.357270 180 3684ft 0kts
16-May-20 07:49 47.482575 -111.357270 180 3684ft 0kts
16-May-20 07:49 47.482575 -111.357270 180 3684ft 0kts
16-May-20 07:51 47.482575 -111.357270 180 3684ft 0kts
16-May-20 07:52 47.482860 -111.357286 173 3684ft 2kts
16-May-20 07:52 47.483329 -111.357729 89 3684ft 2kts
16-May-20 07:54 47.483329 -111.357827 89 3684ft 0kts
16-May-20 07:55 47.483329 -111.357827 89 3684ft 0kts
16-May-20 07:55 47.483329 -111.357827 89 3684ft 0kts
16-May-20 07:56 47.484457 -111.356954 9 3684ft 10kts
16-May-20 07:58 47.488344 -111.353136 44 3684ft 22kts
16-May-20 07:58 47.489047 -111.353306 314 3684ft 0kts
16-May-20 07:59 47.489394 -111.354213 235 3684ft 6kts
16-May-20 08:00 47.487431 -111.357131 224 3684ft 62kts
16-May-20 08:01 47.460623 -111.397098 225 5282ft 174kts
16-May-20 08:02 47.451618 -111.476478 268 7760ft 218kts
16-May-20 08:03 47.455232 -111.572862 271 9594ft 249kts
16-May-20 08:04 47.457078 -111.676674 267 11289ft 257kts
16-May-20 08:05 47.457226 -111.784623 268 12620ft 271kts
16-May-20 08:06 47.459045 -111.899439 269 13495ft 289kts
16-May-20 08:07 47.460896 -112.018419 269 14851ft 281kts
16-May-20 08:08 47.462493 -112.133672 269 16145ft 282kts
16-May-20 08:09 47.464006 -112.250452 269 17316ft 283kts
16-May-20 08:10 47.465419 -112.365069 269 18638ft 279kts
16-May-20 08:11 47.466753 -112.480437 269 19685ft 283kts
16-May-20 08:12 47.467930 -112.597795 269 20687ft 286kts
16-May-20 08:13 47.468950 -112.714896 269 21684ft 285kts
16-May-20 08:14 47.469919 -112.831890 270 22681ft 284kts
16-May-20 08:15 47.470936 -112.948799 269 23683ft 283kts
16-May-20 08:16 47.471330 -113.067154 269 24142ft 299kts
16-May-20 08:17 47.472280 -113.194330 269 24158ft 319kts
16-May-20 08:18 47.472540 -113.328156 269 24156ft 331kts
16-May-20 08:19 47.473170 -113.465496 269 24157ft 338kts
16-May-20 08:20 47.473232 -113.605198 269 24158ft 341kts
16-May-20 08:21 47.473263 -113.745474 268 24161ft 342kts
16-May-20 08:22 47.473178 -113.886101 269 24163ft 342kts
16-May-20 08:23 47.472867 -114.026535 268 24167ft 341kts
16-May-20 08:24 47.472374 -114.166775 268 24170ft 341kts
16-May-20 08:25 47.471672 -114.306853 268 24172ft 340kts
16-May-20 08:26 47.470788 -114.446300 268 24171ft 340kts
16-May-20 08:27 47.469876 -114.586040 268 24171ft 339kts
16-May-20 08:28 47.468810 -114.724963 268 24165ft 339kts
16-May-20 08:29 47.467510 -114.864002 268 24163ft 338kts
16-May-20 08:30 47.465951 -115.003021 268 24156ft 337kts
16-May-20 08:31 47.464361 -115.141731 268 24151ft 337kts
16-May-20 08:32 47.462573 -115.279566 267 24149ft 336kts
16-May-20 08:33 47.460498 -115.417615 267 24147ft 335kts
16-May-20 08:34 47.458545 -115.555017 267 24148ft 336kts
16-May-20 08:35 47.458886 -115.692605 274 24146ft 336kts
16-May-20 08:36 47.468204 -115.829909 275 24141ft 335kts
16-May-20 08:37 47.476765 -115.966587 275 24138ft 333kts
16-May-20 08:38 47.485357 -116.102721 274 24119ft 333kts
16-May-20 08:39 47.493207 -116.238985 273 24129ft 332kts
16-May-20 08:40 47.500970 -116.375110 273 24124ft 332kts
16-May-20 08:41 47.508406 -116.511239 273 24122ft 332kts
16-May-20 08:42 47.516022 -116.647658 272 24121ft 333kts
16-May-20 08:43 47.523501 -116.784142 272 24118ft 334kts
16-May-20 08:44 47.530376 -116.921155 272 24118ft 335kts
16-May-20 08:45 47.537613 -117.058726 272 24111ft 335kts
16-May-20 08:46 47.544478 -117.195884 271 24108ft 335kts
16-May-20 08:47 47.551097 -117.332738 271 24100ft 333kts
16-May-20 08:48 47.557650 -117.469644 271 24095ft 333kts
16-May-20 08:49 47.563941 -117.605808 271 24088ft 331kts
16-May-20 08:50 47.575424 -117.741244 276 24085ft 331kts
16-May-20 08:51 47.589053 -117.875564 275 24084ft 329kts
16-May-20 08:52 47.601968 -118.010065 274 24082ft 331kts
16-May-20 08:53 47.614195 -118.145418 274 24080ft 332kts
16-May-20 08:54 47.626957 -118.282104 273 24075ft 337kts
16-May-20 08:55 47.639324 -118.420210 273 24067ft 339kts
16-May-20 08:56 47.651707 -118.558649 273 24061ft 340kts
16-May-20 08:57 47.663964 -118.697597 273 24052ft 340kts
16-May-20 08:58 47.675954 -118.836447 273 24049ft 340kts
16-May-20 08:59 47.687883 -118.975729 272 24047ft 339kts
16-May-20 09:00 47.699558 -119.114391 272 24046ft 339kts
16-May-20 09:01 47.711116 -119.253601 272 24045ft 339kts
16-May-20 09:02 47.722485 -119.392258 272 24044ft 339kts
16-May-20 09:03 47.733618 -119.530851 272 24044ft 338kts
16-May-20 09:04 47.744721 -119.669789 272 24043ft 338kts
16-May-20 09:05 47.755569 -119.808878 272 24042ft 338kts
16-May-20 09:06 47.766225 -119.947613 272 24040ft 338kts
16-May-20 09:07 47.776732 -120.086442 272 24039ft 338kts
16-May-20 09:08 47.786678 -120.219534 271 24037ft 339kts
16-May-20 09:09 47.797321 -120.364658 271 24035ft 339kts
16-May-20 09:10 47.807306 -120.504238 271 24033ft 339kts
16-May-20 09:11 47.817237 -120.644111 271 23509ft 343kts
16-May-20 09:12 47.827057 -120.785875 271 21680ft 347kts
16-May-20 09:13 47.836770 -120.928885 271 19860ft 347kts
16-May-20 09:14 47.846311 -121.072128 271 18025ft 348kts
16-May-20 09:15 47.855719 -121.215974 271 16250ft 350kts
16-May-20 09:16 47.864914 -121.359161 271 14427ft 331kts
16-May-20 09:17 47.873534 -121.490106 271 12757ft 323kts
16-May-20 09:18 47.881505 -121.622316 271 10939ft 295kts
16-May-20 09:19 47.863518 -121.727084 228 10058ft 261kts
16-May-20 09:20 47.813742 -121.804726 217 10032ft 268kts
16-May-20 09:21 47.754983 -121.881415 216 10029ft 285kts
16-May-20 09:22 47.697199 -121.959113 217 10022ft 271kts
16-May-20 09:23 47.644034 -122.032250 217 9992ft 251kts
16-May-20 09:24 47.589864 -122.102193 218 9342ft 272kts
16-May-20 09:25 47.525173 -122.149209 186 7996ft 237kts
16-May-20 09:26 47.463962 -122.166791 186 6484ft 217kts
16-May-20 09:27 47.400513 -122.183731 186 6036ft 240kts
16-May-20 09:28 47.335314 -122.197092 177 6023ft 229kts
16-May-20 09:30 47.272529 -122.197074 177 6024ft 229kts
16-May-20 09:31 47.207017 -122.187742 176 6022ft 242kts
16-May-20 09:32 47.138797 -122.178039 176 6021ft 248kts
16-May-20 09:33 47.069892 -122.172272 198 6006ft 247kts
16-May-20 09:34 47.053089 -122.249814 295 6007ft 224kts
16-May-20 09:35 47.097991 -122.313963 345 5623ft 240kts
16-May-20 09:36 47.161750 -122.311358 1 5039ft 220kts
16-May-20 09:37 47.223369 -122.309602 359 4221ft 227kts
16-May-20 09:38 47.287147 -122.308230 1 2994ft 218kts
16-May-20 09:39 47.340626 -122.307503 359 2166ft 160kts
16-May-20 09:40 47.380481 -122.308832 359 1362ft 125kts
16-May-20 09:41 47.415081 -122.308139 0 748ft 124kts
16-May-20 09:42 47.442803 -122.307888 359 440ft 27kts
16-May-20 09:43 47.443590 -122.306486 91 440ft 0kts
16-May-20 09:43 47.443590 -122.306486 91 440ft 0kts
16-May-20 09:45 47.443584 -122.306072 91 440ft 9kts
16-May-20 09:46 47.443647 -122.304608 359 440ft 0kts
16-May-20 09:46 47.443647 -122.304608 359 440ft 0kts
16-May-20 09:47 47.443647 -122.304608 359 440ft 0kts
16-May-20 09:49 47.443647 -122.304608 359 440ft 0kts
16-May-20 09:50 47.443647 -122.304608 359 440ft 0kts
16-May-20 09:50 47.443647 -122.304608 359 440ft 0kts

Navigation Log

Ident Type
Flight plan parsing failed, navigation log unavailable